Utsunomiya, Japan
Current Conditions -  °F | °C
As of 4:00 PM on Tuesday 21 Oct 2014 (Local Time) from RJAH Reporting Station
Broken Clouds Broken Clouds  
Wind Chill: 68°   Ceiling: 4000
Heat Index: 68°   Visibility: 6mi
Dew Point: 61°   Wind: 8mph
Humidity: 78%   Direction: 200°SSW
Pressure: 29.91"   Gusts: NA
Location:  36.56°N, 139.89°E
Report Text: RJAH 210700Z 20007KT 9999 FEW008 BKN040 20/16 Q1013
Loading
Personal Weather Stations






























Interactive Weather Map
Tropical Storm Tracking
New forecast layout! Learn more

10-Day Weather Forecast

Advertisements
Track Severe Weather on mobile